createdAt,value
2023-09-03T00:02:01.781Z,75.37
2023-09-03T00:04:04.993Z,75.09
2023-09-03T00:06:08.001Z,74.87
2023-09-03T00:08:11.744Z,74.75
2023-09-03T00:10:14.587Z,74.71
2023-09-03T00:12:17.367Z,74.68
2023-09-03T00:14:19.337Z,75.00
2023-09-03T00:16:22.187Z,74.77
2023-09-03T00:18:26.407Z,74.82
2023-09-03T00:20:29.327Z,74.78
2023-09-03T00:22:32.132Z,74.94
2023-09-03T00:24:34.958Z,74.93
2023-09-03T00:26:37.850Z,75.13
2023-09-03T00:28:40.698Z,75.47
2023-09-03T00:30:43.289Z,75.56
2023-09-03T00:32:46.819Z,75.92
2023-09-03T00:34:51.069Z,76.04
2023-09-03T00:36:53.914Z,76.17
2023-09-03T00:38:58.343Z,76.19
2023-09-03T00:41:01.710Z,76.42
2023-09-03T00:43:04.818Z,76.62
2023-09-03T00:45:08.790Z,76.27
2023-09-03T00:47:12.224Z,76.55
2023-09-03T00:49:21.897Z,76.58
2023-09-03T00:51:26.766Z,77.07
2023-09-03T00:53:30.494Z,77.29
2023-09-03T00:55:33.668Z,77.19
2023-09-03T00:57:36.676Z,77.29
2023-09-03T00:59:41.332Z,77.14
2023-09-03T01:01:44.275Z,77.30
2023-09-03T01:03:49.017Z,77.33
2023-09-03T01:05:51.937Z,77.70
2023-09-03T01:07:57.148Z,77.30
2023-09-03T01:10:02.302Z,77.57
2023-09-03T01:12:11.652Z,77.44
2023-09-03T01:14:25.821Z,77.65
2023-09-03T01:16:34.937Z,77.51
2023-09-03T01:18:40.816Z,77.58
2023-09-03T01:20:46.793Z,77.67
2023-09-03T01:23:25.042Z,77.49
2023-09-03T01:25:50.122Z,76.80
2023-09-03T01:28:00.427Z,77.07
2023-09-03T01:30:06.422Z,76.53
2023-09-03T01:32:11.828Z,76.79
2023-09-03T01:34:15.349Z,76.72
2023-09-03T01:36:19.906Z,77.15
2023-09-03T01:38:23.848Z,76.86
2023-09-03T01:40:26.806Z,76.85
2023-09-03T01:42:29.654Z,76.81
2023-09-03T01:44:32.776Z,76.67
2023-09-03T01:46:45.923Z,76.38
2023-09-03T01:49:03.861Z,76.91
2023-09-03T01:51:17.723Z,76.84
2023-09-03T01:53:25.659Z,76.55
2023-09-03T01:55:30.654Z,76.81
2023-09-03T01:57:37.137Z,76.71
2023-09-03T01:59:43.948Z,76.63
2023-09-03T02:01:51.517Z,76.85
2023-09-03T02:03:54.650Z,77.11
2023-09-03T02:05:58.006Z,76.95
2023-09-03T02:08:00.900Z,77.36
2023-09-03T02:10:03.785Z,77.47
2023-09-03T02:12:08.612Z,77.30
2023-09-03T02:14:11.492Z,77.07
2023-09-03T02:16:16.217Z,76.91
2023-09-03T02:18:20.597Z,77.05
2023-09-03T02:20:23.333Z,77.15
2023-09-03T02:22:26.267Z,77.23
2023-09-03T02:24:29.084Z,77.06
2023-09-03T02:26:31.016Z,76.81
2023-09-03T02:28:36.090Z,76.28
2023-09-03T02:30:38.977Z,76.78
2023-09-03T02:32:41.937Z,76.85
2023-09-03T02:34:46.156Z,76.55
2023-09-03T02:36:51.308Z,76.75
2023-09-03T02:39:01.290Z,76.45
2023-09-03T02:41:04.129Z,76.52
2023-09-03T02:43:07.171Z,76.70
2023-09-03T02:45:11.014Z,76.50
2023-09-03T02:47:13.809Z,76.38
2023-09-03T02:49:16.892Z,76.70
2023-09-03T02:51:21.952Z,76.83
2023-09-03T02:53:24.847Z,77.14
2023-09-03T02:55:27.776Z,77.29
2023-09-03T02:57:30.644Z,77.14
2023-09-03T02:59:33.736Z,77.08
2023-09-03T03:01:35.727Z,76.87
2023-09-03T03:03:38.886Z,76.52
2023-09-03T03:05:41.801Z,76.74
2023-09-03T03:07:46.233Z,76.98
2023-09-03T03:09:51.033Z,77.17
2023-09-03T03:11:54.137Z,77.14
2023-09-03T03:13:57.309Z,76.96
2023-09-03T03:16:07.243Z,77.28
2023-09-03T03:18:10.569Z,77.23
2023-09-03T03:20:13.828Z,77.27
2023-09-03T03:22:16.855Z,76.96
2023-09-03T03:24:21.886Z,77.22
2023-09-03T03:26:24.985Z,77.35
2023-09-03T03:28:26.887Z,76.98
2023-09-03T03:30:30.453Z,77.19
2023-09-03T03:32:33.442Z,76.77
2023-09-03T03:34:37.203Z,76.95
2023-09-03T03:36:39.158Z,76.76
2023-09-03T03:38:42.144Z,76.68
2023-09-03T03:40:46.363Z,76.89
2023-09-03T03:42:49.223Z,76.72
2023-09-03T03:44:52.091Z,76.59
2023-09-03T03:46:55.155Z,77.09
2023-09-03T03:48:58.458Z,77.06
2023-09-03T03:51:02.411Z,77.24
2023-09-03T03:53:05.616Z,77.30
2023-09-03T03:55:08.956Z,77.82
2023-09-03T03:57:13.335Z,77.74
2023-09-03T03:59:16.186Z,77.59
2023-09-03T04:01:20.696Z,78.23
2023-09-03T04:03:24.866Z,78.17
2023-09-03T04:05:30.431Z,77.55
2023-09-03T04:07:34.108Z,76.67
2023-09-03T04:09:38.618Z,76.79
2023-09-03T04:11:42.578Z,76.81
2023-09-03T04:13:47.120Z,77.69
2023-09-03T04:15:50.064Z,77.41
2023-09-03T04:17:53.007Z,77.34
2023-09-03T04:19:56.418Z,76.75
2023-09-03T04:21:59.275Z,77.49
2023-09-03T04:24:03.682Z,77.79
2023-09-03T04:26:06.741Z,77.44
2023-09-03T04:28:14.133Z,78.12
2023-09-03T04:30:18.548Z,77.83
2023-09-03T04:32:22.338Z,77.87
2023-09-03T04:34:25.518Z,77.47
2023-09-03T04:36:28.423Z,77.68
2023-09-03T04:38:31.813Z,77.60
2023-09-03T04:40:36.292Z,77.29
2023-09-03T04:42:40.267Z,77.15
2023-09-03T04:44:43.780Z,77.16
2023-09-03T04:46:48.079Z,77.58
2023-09-03T04:48:51.058Z,77.78
2023-09-03T04:50:53.993Z,77.41
2023-09-03T04:52:57.981Z,77.56
2023-09-03T04:55:00.786Z,77.46
2023-09-03T04:57:04.033Z,76.97
2023-09-03T04:59:06.946Z,77.41
2023-09-03T05:01:16.784Z,76.83
2023-09-03T05:03:23.162Z,76.70
2023-09-03T05:05:26.737Z,77.49
2023-09-03T05:07:29.822Z,77.28
2023-09-03T05:09:33.061Z,77.14
2023-09-03T05:11:37.200Z,77.81
2023-09-03T05:13:40.310Z,77.49
2023-09-03T05:15:43.952Z,77.62
2023-09-03T05:17:46.859Z,77.75
2023-09-03T05:19:51.324Z,77.79
2023-09-03T05:21:53.994Z,78.05
2023-09-03T05:23:56.912Z,78.07
2023-09-03T05:25:59.914Z,78.21
2023-09-03T05:28:03.385Z,77.69
2023-09-03T05:30:07.933Z,77.20
2023-09-03T05:32:10.740Z,77.13
2023-09-03T05:34:15.300Z,76.88
2023-09-03T05:36:19.600Z,77.29
2023-09-03T05:38:24.396Z,77.31
2023-09-03T05:40:27.335Z,77.41
2023-09-03T05:42:30.201Z,77.43
2023-09-03T05:44:33.303Z,78.17
2023-09-03T05:46:36.167Z,77.88
2023-09-03T05:48:39.057Z,78.33
2023-09-03T05:50:45.657Z,78.11
2023-09-03T05:52:50.656Z,78.47
2023-09-03T05:54:53.604Z,78.31
2023-09-03T05:56:56.635Z,78.55
2023-09-03T05:59:05.074Z,78.71
2023-09-03T06:01:10.070Z,78.04
2023-09-03T06:03:13.003Z,77.09
2023-09-03T06:05:15.944Z,77.01
2023-09-03T06:07:18.842Z,76.67
2023-09-03T06:09:23.056Z,75.61
2023-09-03T06:11:24.898Z,75.92
2023-09-03T06:13:27.795Z,75.88
2023-09-03T06:15:30.734Z,75.50
2023-09-03T06:17:33.665Z,75.79
2023-09-03T06:19:36.666Z,75.03
2023-09-03T06:21:39.501Z,75.64
2023-09-03T06:23:42.374Z,76.08
2023-09-03T06:25:46.722Z,75.65
2023-09-03T06:27:49.640Z,75.74
2023-09-03T06:29:52.487Z,75.80
2023-09-03T06:31:55.419Z,76.08
2023-09-03T06:33:58.294Z,75.79
2023-09-03T06:36:01.169Z,75.69
2023-09-03T06:38:04.077Z,75.77
2023-09-03T06:40:09.827Z,75.81
2023-09-03T06:42:13.613Z,76.23
2023-09-03T06:44:16.634Z,76.31
2023-09-03T06:46:19.448Z,76.04
2023-09-03T06:48:21.583Z,76.60
2023-09-03T06:50:24.599Z,76.04
2023-09-03T06:52:27.505Z,76.14
2023-09-03T06:54:30.347Z,75.99
2023-09-03T06:56:33.241Z,76.47
2023-09-03T06:58:37.411Z,75.63
2023-09-03T07:00:40.331Z,75.12
2023-09-03T07:02:43.217Z,74.91
2023-09-03T07:04:46.083Z,75.40
2023-09-03T07:06:48.926Z,76.01
2023-09-03T07:08:53.256Z,75.77
2023-09-03T07:11:00.751Z,74.61
2023-09-03T07:13:02.670Z,74.75
2023-09-03T07:15:08.719Z,74.81
2023-09-03T07:17:11.601Z,74.53
2023-09-03T07:19:14.576Z,73.99
2023-09-03T07:21:17.466Z,74.14
2023-09-03T07:23:19.337Z,74.06
2023-09-03T07:25:22.529Z,73.68
2023-09-03T07:27:25.377Z,73.58
2023-09-03T07:29:28.178Z,73.21
2023-09-03T07:31:32.359Z,73.56
2023-09-03T07:33:35.222Z,73.34
2023-09-03T07:35:38.045Z,73.44
2023-09-03T07:37:44.035Z,72.42
2023-09-03T07:39:46.675Z,73.10
2023-09-03T07:41:49.612Z,71.62
2023-09-03T07:43:52.746Z,72.00
2023-09-03T07:45:55.792Z,73.18
2023-09-03T07:48:00.149Z,72.49
2023-09-03T07:50:03.000Z,72.63
2023-09-03T07:52:07.912Z,72.24
2023-09-03T07:54:11.011Z,72.41
2023-09-03T07:56:13.788Z,72.00
2023-09-03T07:58:16.739Z,71.51
2023-09-03T08:00:20.676Z,71.30
2023-09-03T08:02:24.394Z,71.17
2023-09-03T08:04:27.624Z,71.62
2023-09-03T08:06:30.457Z,71.21
2023-09-03T08:08:33.326Z,70.84
2023-09-03T08:10:36.173Z,70.97
2023-09-03T08:12:39.058Z,71.41
2023-09-03T08:14:43.248Z,71.13
2023-09-03T08:16:46.293Z,70.68
2023-09-03T08:18:49.162Z,71.09
2023-09-03T08:20:54.196Z,71.41
2023-09-03T08:22:57.002Z,71.09
2023-09-03T08:24:59.825Z,70.49
2023-09-03T08:27:02.671Z,70.39
2023-09-03T08:29:05.565Z,70.55
2023-09-03T08:31:08.546Z,70.31
2023-09-03T08:33:11.481Z,69.86
2023-09-03T08:35:15.149Z,69.73
2023-09-03T08:37:19.416Z,70.25
2023-09-03T08:39:22.236Z,69.92
2023-09-03T08:41:25.207Z,70.17
2023-09-03T08:43:30.343Z,70.23
2023-09-03T08:45:35.637Z,70.68
2023-09-03T08:47:41.528Z,69.72
2023-09-03T08:49:46.848Z,70.09
2023-09-03T08:51:48.809Z,70.42
2023-09-03T08:53:56.479Z,70.16
2023-09-03T08:55:59.585Z,69.71
2023-09-03T08:58:02.493Z,69.39
2023-09-03T09:00:06.777Z,68.91
2023-09-03T09:02:21.939Z,68.83
2023-09-03T09:04:24.186Z,68.65
2023-09-03T09:06:27.119Z,68.48
2023-09-03T09:08:30.613Z,69.69
2023-09-03T09:10:38.269Z,69.26
2023-09-03T09:12:45.026Z,68.08
2023-09-03T09:14:54.710Z,68.17
2023-09-03T09:16:57.670Z,68.59
2023-09-03T09:19:03.467Z,69.05
2023-09-03T09:21:07.247Z,67.73
2023-09-03T09:23:10.869Z,67.32
2023-09-03T09:25:20.484Z,67.23
2023-09-03T09:27:24.736Z,66.54
2023-09-03T09:29:27.573Z,67.21
2023-09-03T09:31:32.075Z,65.79
2023-09-03T09:33:35.005Z,66.49
2023-09-03T09:35:37.842Z,65.72
2023-09-03T09:37:41.641Z,64.50
2023-09-03T09:39:45.746Z,62.97
2023-09-03T09:41:48.575Z,64.68
2023-09-03T09:43:53.312Z,63.57
2023-09-03T09:45:56.173Z,63.98
2023-09-03T09:48:07.417Z,63.12
2023-09-03T09:50:10.760Z,63.84
2023-09-03T09:52:13.780Z,62.54
2023-09-03T09:54:16.712Z,63.18
2023-09-03T09:56:19.311Z,62.91
2023-09-03T09:58:22.213Z,63.63
2023-09-03T10:00:35.469Z,64.68
2023-09-03T10:02:39.496Z,63.04
2023-09-03T10:04:42.792Z,63.52
2023-09-03T10:06:45.736Z,63.25
2023-09-03T10:08:51.965Z,62.92
2023-09-03T10:10:55.040Z,62.19
2023-09-03T10:12:57.903Z,63.06
2023-09-03T10:15:01.048Z,62.99
2023-09-03T10:17:07.152Z,62.46
2023-09-03T10:19:15.445Z,61.42
2023-09-03T10:21:23.430Z,61.36
2023-09-03T10:23:31.875Z,60.77
2023-09-03T10:25:37.530Z,61.26
2023-09-03T10:27:42.659Z,61.31
2023-09-03T10:29:48.700Z,61.71
2023-09-03T10:31:53.161Z,60.81
2023-09-03T10:33:57.505Z,60.83
2023-09-03T10:36:15.054Z,60.54
2023-09-03T10:38:32.014Z,60.12
2023-09-03T10:40:35.165Z,59.19
2023-09-03T10:42:37.162Z,58.71
2023-09-03T10:44:43.550Z,58.88
2023-09-03T10:47:02.390Z,59.95
2023-09-03T10:49:08.535Z,58.57
2023-09-03T10:51:10.308Z,58.63
2023-09-03T10:53:37.654Z,58.70
2023-09-03T10:55:40.549Z,58.56
2023-09-03T10:57:43.273Z,58.05
2023-09-03T11:00:08.202Z,58.63
2023-09-03T11:02:26.180Z,57.59
2023-09-03T11:04:38.506Z,58.12
2023-09-03T11:06:41.691Z,58.54
2023-09-03T11:08:43.700Z,58.20
2023-09-03T11:10:47.019Z,58.80
2023-09-03T11:12:50.354Z,57.53
2023-09-03T11:14:54.446Z,57.99
2023-09-03T11:16:59.751Z,58.11
2023-09-03T11:19:04.364Z,55.92
2023-09-03T11:21:08.687Z,55.70
2023-09-03T11:23:11.796Z,56.82
2023-09-03T11:25:14.698Z,56.62
2023-09-03T11:27:17.644Z,57.00
2023-09-03T11:29:21.665Z,55.47
2023-09-03T11:31:24.398Z,55.55
2023-09-03T11:33:28.842Z,55.70
2023-09-03T11:35:41.732Z,56.17
2023-09-03T11:37:45.968Z,55.82
2023-09-03T11:39:52.528Z,55.17
2023-09-03T11:41:55.678Z,55.21
2023-09-03T11:43:58.569Z,55.96
2023-09-03T11:46:05.801Z,55.67
2023-09-03T11:48:10.045Z,55.07
2023-09-03T11:50:14.077Z,54.44
2023-09-03T11:52:18.235Z,55.97
2023-09-03T11:54:25.752Z,56.06
2023-09-03T11:56:31.306Z,53.78
2023-09-03T11:58:33.576Z,53.46
2023-09-03T12:00:37.569Z,54.63
2023-09-03T12:02:40.423Z,54.28
2023-09-03T12:04:44.768Z,53.80
2023-09-03T12:06:48.187Z,53.87
2023-09-03T12:08:51.175Z,53.24
2023-09-03T12:10:54.532Z,52.71
2023-09-03T12:12:57.418Z,52.32
2023-09-03T12:15:00.410Z,53.56
2023-09-03T12:17:03.336Z,52.30
2023-09-03T12:19:06.232Z,51.15
2023-09-03T12:21:10.117Z,51.61
2023-09-03T12:23:14.657Z,51.25
2023-09-03T12:25:17.893Z,49.74
2023-09-03T12:27:22.138Z,50.83
2023-09-03T12:29:31.808Z,50.82
2023-09-03T12:31:43.275Z,48.99
2023-09-03T12:33:48.864Z,50.47
2023-09-03T12:36:08.474Z,49.17
2023-09-03T12:38:11.431Z,49.49
2023-09-03T12:40:14.929Z,50.42
2023-09-03T12:42:19.064Z,50.96
2023-09-03T12:44:23.276Z,50.19
2023-09-03T12:46:26.026Z,48.79
2023-09-03T12:48:28.017Z,48.89
2023-09-03T12:50:30.932Z,49.51
2023-09-03T12:52:33.905Z,49.64
2023-09-03T12:54:35.935Z,50.36
2023-09-03T12:56:38.758Z,49.19
2023-09-03T12:58:43.218Z,48.50
2023-09-03T13:00:47.487Z,48.58
2023-09-03T13:02:50.612Z,47.67
2023-09-03T13:04:53.478Z,47.58
2023-09-03T13:06:56.382Z,48.67
2023-09-03T13:08:59.165Z,47.68
2023-09-03T13:11:02.599Z,47.92
2023-09-03T13:13:08.702Z,47.92
2023-09-03T13:15:12.236Z,47.99
2023-09-03T13:17:16.392Z,46.13
2023-09-03T13:19:19.228Z,47.04
2023-09-03T13:21:22.404Z,47.16
2023-09-03T13:23:25.572Z,48.63
2023-09-03T13:25:34.922Z,47.69
2023-09-03T13:27:38.398Z,47.04
2023-09-03T13:29:41.287Z,48.51
2023-09-03T13:31:44.143Z,46.83
2023-09-03T13:33:49.018Z,46.46
2023-09-03T13:35:53.329Z,46.07
2023-09-03T13:37:56.066Z,46.89
2023-09-03T13:39:58.901Z,47.35
2023-09-03T13:42:01.952Z,47.93
2023-09-03T13:44:05.036Z,47.90
2023-09-03T13:46:07.894Z,48.15
2023-09-03T13:48:09.971Z,48.95
2023-09-03T13:50:14.193Z,48.84
2023-09-03T13:52:17.339Z,49.21
2023-09-03T13:54:20.173Z,48.14
2023-09-03T13:56:23.013Z,49.28
2023-09-03T13:58:25.816Z,49.04
2023-09-03T14:00:28.961Z,46.49
2023-09-03T14:02:30.979Z,47.61
2023-09-03T14:04:34.055Z,48.39
2023-09-03T14:06:39.359Z,48.54
2023-09-03T14:08:42.324Z,48.74
2023-09-03T14:10:45.334Z,49.53
2023-09-03T14:12:48.274Z,49.25
2023-09-03T14:14:50.191Z,48.54
2023-09-03T14:16:53.104Z,47.88
2023-09-03T14:18:55.955Z,49.06
2023-09-03T14:20:58.965Z,49.31
2023-09-03T14:23:03.141Z,49.32
2023-09-03T14:25:06.218Z,50.20
2023-09-03T14:27:09.221Z,49.96
2023-09-03T14:29:12.048Z,48.65
2023-09-03T14:31:14.848Z,49.73
2023-09-03T14:33:17.732Z,49.62
2023-09-03T14:35:20.593Z,48.22
2023-09-03T14:37:24.458Z,48.50
2023-09-03T14:39:28.771Z,50.03
2023-09-03T14:41:30.540Z,49.14
2023-09-03T14:43:33.383Z,49.57
2023-09-03T14:45:36.208Z,49.25
2023-09-03T14:47:41.018Z,49.42
2023-09-03T14:49:45.954Z,49.57
2023-09-03T14:51:49.390Z,49.90
2023-09-03T14:53:52.999Z,49.12
2023-09-03T14:55:57.264Z,50.28
2023-09-03T14:58:00.052Z,49.27
2023-09-03T15:00:04.074Z,49.20
2023-09-03T15:02:13.113Z,50.44
2023-09-03T15:04:20.814Z,49.73
2023-09-03T15:06:25.047Z,49.65
2023-09-03T15:08:28.048Z,49.21
2023-09-03T15:10:31.543Z,49.47
2023-09-03T15:12:35.753Z,50.03
2023-09-03T15:14:39.409Z,50.48
2023-09-03T15:16:42.545Z,49.98
2023-09-03T15:18:45.461Z,49.51
2023-09-03T15:20:53.668Z,50.46
2023-09-03T15:22:55.575Z,49.28
2023-09-03T15:24:58.425Z,49.20
2023-09-03T15:27:01.509Z,49.53
2023-09-03T15:29:05.979Z,49.94
2023-09-03T15:31:08.935Z,49.72
2023-09-03T15:33:14.524Z,49.58
2023-09-03T15:35:42.357Z,49.27
2023-09-03T15:37:47.785Z,50.12
2023-09-03T15:39:50.981Z,50.37
2023-09-03T15:41:53.842Z,49.41
2023-09-03T15:43:57.228Z,50.07
2023-09-03T15:46:01.098Z,48.80
2023-09-03T15:48:04.692Z,49.25
2023-09-03T15:50:08.282Z,49.58
2023-09-03T15:52:11.240Z,48.73
2023-09-03T15:54:15.750Z,49.05
2023-09-03T15:56:19.896Z,49.03
2023-09-03T15:58:23.021Z,49.00
2023-09-03T16:00:26.207Z,49.96
2023-09-03T16:02:30.579Z,49.85
2023-09-03T16:04:33.229Z,50.10
2023-09-03T16:06:36.115Z,50.07
2023-09-03T16:08:38.977Z,49.74
2023-09-03T16:10:41.997Z,49.41
2023-09-03T16:12:43.959Z,49.54
2023-09-03T16:14:46.784Z,49.66
2023-09-03T16:16:49.699Z,49.56
2023-09-03T16:18:53.943Z,49.68
2023-09-03T16:20:56.661Z,49.10
2023-09-03T16:22:59.495Z,49.59
2023-09-03T16:25:02.377Z,49.43
2023-09-03T16:27:05.456Z,49.54
2023-09-03T16:29:08.260Z,49.46
2023-09-03T16:31:12.417Z,49.36
2023-09-03T16:33:15.352Z,49.56
2023-09-03T16:35:20.643Z,50.20
2023-09-03T16:37:24.059Z,50.51
2023-09-03T16:39:27.153Z,50.21
2023-09-03T16:41:30.881Z,50.28
2023-09-03T16:43:36.839Z,49.72
2023-09-03T16:45:43.526Z,49.85
2023-09-03T16:47:48.150Z,50.70
2023-09-03T16:49:52.899Z,50.28
2023-09-03T16:51:57.006Z,50.67
2023-09-03T16:53:59.866Z,50.57
2023-09-03T16:56:02.845Z,51.03
2023-09-03T16:58:06.041Z,51.09
2023-09-03T17:00:09.937Z,51.22
2023-09-03T17:02:14.183Z,51.45
2023-09-03T17:04:17.048Z,51.42
2023-09-03T17:06:21.134Z,51.68
2023-09-03T17:08:26.928Z,51.20
2023-09-03T17:10:29.845Z,50.66
2023-09-03T17:12:32.681Z,51.31
2023-09-03T17:14:35.628Z,51.18
2023-09-03T17:16:38.676Z,51.75
2023-09-03T17:18:40.572Z,51.90
2023-09-03T17:20:45.919Z,51.90
2023-09-03T17:22:48.886Z,51.85
2023-09-03T17:24:53.340Z,52.32
2023-09-03T17:26:56.144Z,52.30
2023-09-03T17:29:00.262Z,52.83
2023-09-03T17:31:03.414Z,52.67
2023-09-03T17:33:06.933Z,53.00
2023-09-03T17:35:09.802Z,53.35
2023-09-03T17:37:14.428Z,53.08
2023-09-03T17:39:18.331Z,53.38
2023-09-03T17:41:23.582Z,52.37
2023-09-03T17:43:26.558Z,53.03
2023-09-03T17:45:28.453Z,53.03
2023-09-03T17:47:31.902Z,52.81
2023-09-03T17:49:34.772Z,53.00
2023-09-03T17:51:37.714Z,53.26
2023-09-03T17:53:40.599Z,53.79
2023-09-03T17:55:43.426Z,54.07
2023-09-03T17:57:47.627Z,54.13
2023-09-03T17:59:50.664Z,54.49
2023-09-03T18:01:53.617Z,54.86
2023-09-03T18:03:56.439Z,54.93
2023-09-03T18:05:59.543Z,54.96
2023-09-03T18:08:02.379Z,55.36
2023-09-03T18:10:05.691Z,55.63
2023-09-03T18:12:10.600Z,55.42
2023-09-03T18:14:14.844Z,55.94
2023-09-03T18:16:17.076Z,56.14
2023-09-03T18:18:20.331Z,55.83
2023-09-03T18:20:24.782Z,55.99
2023-09-03T18:22:26.887Z,55.68
2023-09-03T18:24:29.660Z,56.06
2023-09-03T18:26:33.099Z,55.85
2023-09-03T18:28:36.051Z,55.85
2023-09-03T18:30:40.315Z,54.87
2023-09-03T18:32:43.330Z,55.49
2023-09-03T18:34:46.225Z,55.45
2023-09-03T18:36:49.189Z,55.53
2023-09-03T18:38:54.350Z,55.69
2023-09-03T18:40:59.454Z,55.32
2023-09-03T18:43:01.342Z,55.72
2023-09-03T18:45:04.587Z,55.49
2023-09-03T18:47:09.052Z,55.33
2023-09-03T18:49:12.111Z,55.40
2023-09-03T18:51:15.022Z,55.21
2023-09-03T18:53:16.926Z,55.21
2023-09-03T18:55:20.410Z,55.62
2023-09-03T18:57:23.356Z,55.62
2023-09-03T18:59:26.354Z,56.36
2023-09-03T19:01:30.141Z,55.59
2023-09-03T19:03:34.476Z,55.09
2023-09-03T19:05:38.333Z,56.04
2023-09-03T19:07:41.257Z,55.71
2023-09-03T19:09:44.625Z,55.96
2023-09-03T19:11:47.457Z,56.03
2023-09-03T19:13:50.483Z,56.20
2023-09-03T19:15:55.225Z,55.81
2023-09-03T19:17:58.385Z,55.97
2023-09-03T19:20:02.841Z,55.85
2023-09-03T19:22:06.004Z,56.05
2023-09-03T19:24:09.156Z,56.09
2023-09-03T19:26:12.115Z,56.43
2023-09-03T19:28:16.564Z,56.61
2023-09-03T19:30:19.552Z,56.38
2023-09-03T19:32:22.474Z,56.46
2023-09-03T19:34:26.362Z,56.62
2023-09-03T19:36:30.660Z,56.52
2023-09-03T19:38:35.757Z,56.81
2023-09-03T19:40:38.903Z,57.14
2023-09-03T19:42:52.437Z,57.25
2023-09-03T19:44:56.568Z,57.15
2023-09-03T19:46:59.688Z,56.89
2023-09-03T19:49:04.335Z,57.25
2023-09-03T19:51:07.200Z,57.39
2023-09-03T19:53:11.399Z,57.12
2023-09-03T19:55:14.421Z,57.25
2023-09-03T19:57:17.256Z,57.41
2023-09-03T19:59:20.241Z,57.50
2023-09-03T20:01:23.184Z,57.92
2023-09-03T20:03:26.201Z,58.10
2023-09-03T20:05:29.128Z,57.93
2023-09-03T20:07:32.046Z,58.01
2023-09-03T20:09:37.616Z,58.31
2023-09-03T20:11:40.902Z,58.22
2023-09-03T20:13:44.589Z,58.24
2023-09-03T20:15:55.980Z,58.14
2023-09-03T20:18:00.270Z,58.29
2023-09-03T20:20:05.509Z,58.18
2023-09-03T20:22:08.405Z,58.36
2023-09-03T20:24:11.277Z,58.58
2023-09-03T20:26:17.234Z,58.51
2023-09-03T20:28:28.406Z,58.80
2023-09-03T20:30:38.641Z,58.73
2023-09-03T20:32:41.581Z,58.67
2023-09-03T20:34:44.557Z,58.80
2023-09-03T20:36:47.394Z,58.70
2023-09-03T20:38:50.231Z,58.61
2023-09-03T20:40:53.525Z,59.09
2023-09-03T20:42:57.768Z,58.94
2023-09-03T20:45:00.652Z,58.89
2023-09-03T20:47:03.801Z,58.90
2023-09-03T20:49:06.662Z,59.15
2023-09-03T20:51:09.568Z,59.41
2023-09-03T20:53:13.200Z,59.62
2023-09-03T20:55:15.153Z,59.49
2023-09-03T20:57:18.165Z,59.60
2023-09-03T20:59:22.419Z,59.59
2023-09-03T21:01:27.058Z,59.61
2023-09-03T21:03:37.262Z,59.57
2023-09-03T21:05:40.055Z,59.46
2023-09-03T21:07:42.951Z,59.63
2023-09-03T21:09:46.098Z,59.88
2023-09-03T21:11:48.976Z,59.90
2023-09-03T21:13:51.799Z,59.94
2023-09-03T21:15:57.079Z,60.10
2023-09-03T21:18:00.098Z,60.25
2023-09-03T21:20:05.116Z,60.32
2023-09-03T21:22:08.009Z,60.22
2023-09-03T21:24:10.842Z,60.56
2023-09-03T21:26:14.452Z,60.81
2023-09-03T21:28:17.349Z,60.78
2023-09-03T21:30:20.217Z,61.03
2023-09-03T21:32:23.728Z,60.81
2023-09-03T21:34:28.626Z,61.20
2023-09-03T21:36:31.549Z,61.85
2023-09-03T21:38:34.389Z,61.67
2023-09-03T21:40:37.860Z,61.56
2023-09-03T21:42:40.757Z,61.94
2023-09-03T21:44:44.340Z,62.08
2023-09-03T21:46:47.222Z,62.04
2023-09-03T21:48:51.442Z,62.00
2023-09-03T21:51:02.476Z,62.31
2023-09-03T21:53:12.116Z,62.83
2023-09-03T21:55:14.989Z,62.51
2023-09-03T21:57:17.841Z,62.37
2023-09-03T21:59:19.812Z,62.39
2023-09-03T22:01:22.841Z,62.52
2023-09-03T22:03:25.911Z,62.89
2023-09-03T22:05:31.242Z,62.80
2023-09-03T22:07:34.547Z,62.61
2023-09-03T22:09:37.472Z,62.69
2023-09-03T22:11:40.379Z,62.61
2023-09-03T22:13:43.235Z,62.22
2023-09-03T22:15:46.140Z,62.18
2023-09-03T22:17:49.139Z,62.41
2023-09-03T22:19:52.523Z,62.64
2023-09-03T22:21:57.446Z,62.81
2023-09-03T22:24:00.335Z,62.82
2023-09-03T22:26:03.235Z,62.88
2023-09-03T22:28:08.130Z,62.91
2023-09-03T22:30:12.335Z,63.19
2023-09-03T22:32:15.229Z,63.64
2023-09-03T22:34:18.106Z,63.30
2023-09-03T22:36:20.971Z,63.39
2023-09-03T22:38:25.264Z,63.51
2023-09-03T22:40:28.220Z,63.76
2023-09-03T22:42:31.179Z,63.82
2023-09-03T22:44:34.097Z,63.75
2023-09-03T22:46:37.046Z,63.66
2023-09-03T22:48:39.920Z,63.74
2023-09-03T22:50:42.763Z,64.50
2023-09-03T22:52:45.617Z,65.13
2023-09-03T22:54:49.788Z,65.62
2023-09-03T22:56:52.645Z,66.08
2023-09-03T22:58:59.861Z,66.25
2023-09-03T23:01:04.144Z,66.07
2023-09-03T23:03:07.089Z,66.60
2023-09-03T23:05:10.640Z,66.72
2023-09-03T23:07:15.596Z,66.33
2023-09-03T23:09:18.442Z,66.45
2023-09-03T23:11:22.610Z,66.77
2023-09-03T23:13:25.454Z,67.07
2023-09-03T23:15:28.300Z,66.98
2023-09-03T23:17:31.819Z,67.04
2023-09-03T23:19:35.485Z,67.12
2023-09-03T23:21:39.655Z,67.28
2023-09-03T23:23:42.453Z,67.21
2023-09-03T23:25:45.296Z,66.95
2023-09-03T23:27:49.545Z,67.18
2023-09-03T23:29:52.408Z,67.26
2023-09-03T23:31:55.228Z,67.18
2023-09-03T23:33:58.118Z,67.02
2023-09-03T23:36:01.124Z,67.33
2023-09-03T23:38:04.171Z,67.06
2023-09-03T23:40:07.848Z,66.88
2023-09-03T23:42:09.698Z,67.12
2023-09-03T23:44:13.917Z,67.63
2023-09-03T23:46:16.809Z,67.31
2023-09-03T23:48:18.820Z,67.38
2023-09-03T23:50:21.695Z,67.19
2023-09-03T23:52:23.638Z,66.90
2023-09-03T23:54:27.056Z,67.25
2023-09-03T23:56:29.958Z,67.58
2023-09-03T23:58:32.828Z,67.13
